1872 NOT_NAMED (1872032S12085)


IBTrACS version v04r00. Visit IBTrACS website for data access.
Please direct all questions to the IBTrACS Q and A forum

Storm track - Intensity - Wind Radii - Intensity Data - Source Data - All data

Summary Information

Storm ID 1872032S12085
Start Feb 1 06Z
End Feb 14 06Z
ATCF IDs
Track status Best track data.

Storm track plot

Map of storm track

Intensity plots

No Intensity information for this storm


Radial wind information

No radial wind information for this storm


Position and Intensity Table

BASIN ISO_TIME_________ NATURE LAT LON
degrees north degrees east
SI 1872-02-01 06:00:00 NR -12.30 85.30
SI 09:00:00 NR -12.32 85.19
SI 12:00:00 NR -12.35 85.07
SI 15:00:00 NR -12.38 84.92
SI 18:00:00 NR -12.41 84.75
SI 21:00:00 NR -12.45 84.55
SI 1872-02-02 00:00:00 NR -12.49 84.29
SI 03:00:00 NR -12.54 83.98
SI 06:00:00 NR -12.60 83.60
SI 09:00:00 NR -12.67 83.15
SI 12:00:00 NR -12.74 82.63
SI 15:00:00 NR -12.83 82.07
SI 18:00:00 NR -12.92 81.47
SI 21:00:00 NR -13.01 80.85
SI 1872-02-03 00:00:00 NR -13.10 80.22
SI 03:00:00 NR -13.20 79.60
SI 06:00:00 NR -13.30 79.00
SI 09:00:00 NR -13.39 78.47
SI 12:00:00 NR -13.49 77.94
SI 15:00:00 NR -13.59 77.43
SI 18:00:00 NR -13.69 76.93
SI 21:00:00 NR -13.79 76.44
SI 1872-02-04 00:00:00 NR -13.89 75.95
SI 03:00:00 NR -14.00 75.47
SI 06:00:00 NR -14.10 75.00
SI 09:00:00 NR -14.20 74.52
SI 12:00:00 NR -14.29 74.04
SI 15:00:00 NR -14.39 73.56
SI 18:00:00 NR -14.49 73.10
SI 21:00:00 NR -14.59 72.64
SI 1872-02-05 00:00:00 NR -14.69 72.18
SI 03:00:00 NR -14.79 71.74
SI 06:00:00 NR -14.90 71.30
SI 09:00:00 NR -15.00 70.89
SI 12:00:00 NR -15.10 70.49
SI 15:00:00 NR -15.21 70.10
SI 18:00:00 NR -15.32 69.70
SI 21:00:00 NR -15.43 69.30
SI 1872-02-06 00:00:00 NR -15.55 68.89
SI 03:00:00 NR -15.67 68.45
SI 06:00:00 NR -15.80 68.00
SI 09:00:00 NR -15.93 67.50
SI 12:00:00 NR -16.07 66.98
SI 15:00:00 NR -16.21 66.44
SI 18:00:00 NR -16.35 65.89
SI 21:00:00 NR -16.51 65.32
SI 1872-02-07 00:00:00 NR -16.67 64.75
SI 03:00:00 NR -16.83 64.17
SI 06:00:00 NR -17.00 63.60
SI 09:00:00 NR -17.17 63.03
SI 12:00:00 NR -17.35 62.45
SI 15:00:00 NR -17.54 61.87
SI 18:00:00 NR -17.73 61.30
SI 21:00:00 NR -17.92 60.73
SI 1872-02-08 00:00:00 NR -18.11 60.17
SI 03:00:00 NR -18.31 59.63
SI 06:00:00 NR -18.50 59.10
SI 09:00:00 NR -18.69 58.57
SI 12:00:00 NR -18.89 58.05
SI 15:00:00 NR -19.08 57.55
SI 18:00:00 NR -19.27 57.07
SI 21:00:00 NR -19.46 56.61
SI 1872-02-09 00:00:00 NR -19.65 56.18
SI 03:00:00 NR -19.83 55.77
SI 06:00:00 NR -20.00 55.40
SI 09:00:00 NR -20.15 55.06
SI 12:00:00 NR -20.30 54.75
SI 15:00:00 NR -20.44 54.48
SI 18:00:00 NR -20.58 54.22
SI 21:00:00 NR -20.73 53.98
SI 1872-02-10 00:00:00 NR -20.87 53.75
SI 03:00:00 NR -21.03 53.53
SI 06:00:00 NR -21.20 53.30
SI 09:00:00 NR -21.36 53.03
SI 12:00:00 NR -21.53 52.77
SI 15:00:00 NR -21.71 52.50
SI 18:00:00 NR -21.91 52.25
SI 21:00:00 NR -22.12 51.99
SI 1872-02-11 00:00:00 NR -22.35 51.75
SI 03:00:00 NR -22.61 51.52
SI 06:00:00 NR -22.90 51.30
SI 09:00:00 NR -23.12 50.98
SI 12:00:00 NR -23.35 50.66
SI 15:00:00 NR -23.62 50.36
SI 18:00:00 NR -23.93 50.10
SI 21:00:00 NR -24.31 49.90
SI 1872-02-12 00:00:00 NR -24.77 49.79
SI 03:00:00 NR -25.33 49.78
SI 06:00:00 NR -26.00 49.90
SI 09:00:00 NR -26.97 50.28
SI 12:00:00 NR -28.08 50.81
SI 15:00:00 NR -29.28 51.45
SI 18:00:00 NR -30.50 52.18
SI 21:00:00 NR -31.69 52.95
SI 1872-02-13 00:00:00 NR -32.81 53.73
SI 03:00:00 NR -33.79 54.46
SI 06:00:00 NR -34.60 55.10
SI 09:00:00 NR -35.19 55.61
SI 12:00:00 NR -35.58 55.99
SI 15:00:00 NR -35.81 56.25
SI 18:00:00 NR -35.89 56.42
SI 21:00:00 NR -35.87 56.51
SI 1872-02-14 00:00:00 NR -35.76 56.54
SI 03:00:00 NR -35.59 56.53
SI 06:00:00 NR -35.40 56.50

Source Information

Agency Information
USA
TOKYO
CMA
HKO
NEWDELHI
REUNION WMO-Best-Tracks.txt:Line=917:xxxx872135
BOM
NADI
WELLINGTON
DS824
TD9636
TD9635
NEUMANN
MLC

All available IBTrACS Data

SEASON BASIN SUBBASIN ISO_TIME_________ NATURE LAT LON WMO AGENCY DIST2LAND LANDFALL IFLAG USA SSHS REUNION LAT REUNION LON REUNION TYPE REUNION TNUM STORM SPEED STORM DIR
Year degrees north degrees east km km 1 degrees north degrees east 1 kts degrees
1872 SI MM 1872-02-01 06:00:00 NR -12.30 85.30 1913 1913 _____O________ -1 -12.30 85.30 99 9.90 2 257
1872 SI MM 09:00:00 NR -12.32 85.19 1921 1921 _____P________ -1 -12.32 85.19 99 2 258
1872 SI MM 12:00:00 NR -12.35 85.07 1930 1930 _____P________ -1 -12.35 85.07 99 3 258
1872 SI MM 15:00:00 NR -12.38 84.92 1954 1954 _____P________ -1 -12.38 84.92 99 3 259
1872 SI MM 18:00:00 NR -12.41 84.75 1963 1963 _____P________ -1 -12.41 84.75 99 4 259
1872 SI MM 21:00:00 NR -12.45 84.55 1989 1989 _____P________ -1 -12.45 84.55 99 5 260
1872 SI MM 1872-02-02 00:00:00 NR -12.49 84.29 2013 2013 _____P________ -1 -12.49 84.29 99 6 260
1872 SI MM 03:00:00 NR -12.54 83.98 2040 2040 _____P________ -1 -12.54 83.98 99 7 261
1872 SI MM 06:00:00 NR -12.60 83.60 2082 2082 _____O________ -1 -12.60 83.60 99 9.90 8 261
1872 SI MM 09:00:00 NR -12.67 83.15 2102 2096 _____P________ -1 -12.67 83.15 99 10 261
1872 SI MM 12:00:00 NR -12.74 82.63 2095 2095 _____P________ -1 -12.74 82.63 99 11 261
1872 SI MM 15:00:00 NR -12.83 82.07 2101 2100 _____P________ -1 -12.83 82.07 99 11 261
1872 SI MM 18:00:00 NR -12.92 81.47 2108 2107 _____P________ -1 -12.92 81.47 99 12 261
1872 SI MM 21:00:00 NR -13.01 80.85 2117 2117 _____P________ -1 -13.01 80.85 99 12 261
1872 SI MM 1872-02-03 00:00:00 NR -13.10 80.22 2129 2129 _____P________ -1 -13.10 80.22 99 12 261
1872 SI MM 03:00:00 NR -13.20 79.60 2142 2142 _____P________ -1 -13.20 79.60 99 12 261
1872 SI MM 06:00:00 NR -13.30 79.00 reunion 2158 2158 _____O________ -1 -13.30 79.00 99 9.90 11 260
1872 SI MM 09:00:00 NR -13.39 78.47 2174 2174 _____P________ -1 -13.39 78.47 99 10 259
1872 SI MM 12:00:00 NR -13.49 77.94 2193 2193 _____P________ -1 -13.49 77.94 99 10 259
1872 SI MM 15:00:00 NR -13.59 77.43 2213 2169 _____P________ -1 -13.59 77.43 99 10 259
1872 SI MM 18:00:00 NR -13.69 76.93 2159 2115 _____P________ -1 -13.69 76.93 99 10 258
1872 SI MM 21:00:00 NR -13.79 76.44 2105 2061 _____P________ -1 -13.79 76.44 99 10 258
1872 SI MM 1872-02-04 00:00:00 NR -13.89 75.95 2061 2007 _____P________ -1 -13.89 75.95 99 10 258
1872 SI MM 03:00:00 NR -14.00 75.47 2007 1953 _____P________ -1 -14.00 75.47 99 9 257
1872 SI MM 06:00:00 NR -14.10 75.00 reunion 1953 1899 _____O________ -1 -14.10 75.00 99 9.90 10 258
1872 SI MM 09:00:00 NR -14.20 74.52 1899 1855 _____P________ -1 -14.20 74.52 99 10 258
1872 SI MM 12:00:00 NR -14.29 74.04 1845 1801 _____P________ -1 -14.29 74.04 99 9 258
1872 SI MM 15:00:00 NR -14.39 73.56 1801 1747 _____P________ -1 -14.39 73.56 99 9 258
1872 SI MM 18:00:00 NR -14.49 73.10 1747 1703 _____P________ -1 -14.49 73.10 99 9 258
1872 SI MM 21:00:00 NR -14.59 72.64 1693 1649 _____P________ -1 -14.59 72.64 99 9 257
1872 SI MM 1872-02-05 00:00:00 NR -14.69 72.18 1649 1606 _____P________ -1 -14.69 72.18 99 9 257
1872 SI MM 03:00:00 NR -14.79 71.74 1596 1552 _____P________ -1 -14.79 71.74 99 9 256
1872 SI MM 06:00:00 NR -14.90 71.30 reunion 1552 1508 _____O________ -1 -14.90 71.30 99 9.90 8 256
1872 SI MM 09:00:00 NR -15.00 70.89 1508 1465 _____P________ -1 -15.00 70.89 99 8 255
1872 SI MM 12:00:00 NR -15.10 70.49 1465 1421 _____P________ -1 -15.10 70.49 99 8 255
1872 SI MM 15:00:00 NR -15.21 70.10 1421 1378 _____P________ -1 -15.21 70.10 99 8 254
1872 SI MM 18:00:00 NR -15.32 69.70 1378 1334 _____P________ -1 -15.32 69.70 99 8 254
1872 SI MM 21:00:00 NR -15.43 69.30 1334 1291 _____P________ -1 -15.43 69.30 99 8 254
1872 SI MM 1872-02-06 00:00:00 NR -15.55 68.89 1291 1242 _____P________ -1 -15.55 68.89 99 8 253
1872 SI MM 03:00:00 NR -15.67 68.45 1242 1189 _____P________ -1 -15.67 68.45 99 9 253
1872 SI MM 06:00:00 NR -15.80 68.00 reunion 1189 1137 _____O________ -1 -15.80 68.00 99 9.90 10 254
1872 SI MM 09:00:00 NR -15.93 67.50 1137 1079 _____P________ -1 -15.93 67.50 99 10 255
1872 SI MM 12:00:00 NR -16.07 66.98 1079 1026 _____P________ -1 -16.07 66.98 99 11 255
1872 SI MM 15:00:00 NR -16.21 66.44 1017 964 _____P________ -1 -16.21 66.44 99 11 255
1872 SI MM 18:00:00 NR -16.35 65.89 959 907 _____P________ -1 -16.35 65.89 99 11 254
1872 SI MM 21:00:00 NR -16.51 65.32 897 840 _____P________ -1 -16.51 65.32 99 11 254
1872 SI MM 1872-02-07 00:00:00 NR -16.67 64.75 840 778 _____P________ -1 -16.67 64.75 99 11 254
1872 SI MM 03:00:00 NR -16.83 64.17 778 712 _____P________ -1 -16.83 64.17 99 12 253
1872 SI MM 06:00:00 NR -17.00 63.60 reunion 712 654 _____O________ -1 -17.00 63.60 99 9.90 12 253
1872 SI MM 09:00:00 NR -17.17 63.03 645 594 _____P________ -1 -17.17 63.03 99 12 252
1872 SI MM 12:00:00 NR -17.35 62.45 579 529 _____P________ -1 -17.35 62.45 99 12 252
1872 SI MM 15:00:00 NR -17.54 61.87 529 464 _____P________ -1 -17.54 61.87 99 12 251
1872 SI MM 18:00:00 NR -17.73 61.30 464 408 _____P________ -1 -17.73 61.30 99 12 251
1872 SI MM 21:00:00 NR -17.92 60.73 400 345 _____P________ -1 -17.92 60.73 99 11 250
1872 SI MM 1872-02-08 00:00:00 NR -18.11 60.17 345 290 _____P________ -1 -18.11 60.17 99 11 250
1872 SI MM 03:00:00 NR -18.31 59.63 283 231 _____P________ -1 -18.31 59.63 99 11 249
1872 SI MM 06:00:00 NR -18.50 59.10 reunion 231 182 _____O________ -1 -18.50 59.10 99 9.90 11 249
1872 SI MM 09:00:00 NR -18.69 58.57 182 140 _____P________ -1 -18.69 58.57 99 11 249
1872 SI MM 12:00:00 NR -18.89 58.05 140 111 _____P________ -1 -18.89 58.05 99 10 248
1872 SI MM 15:00:00 NR -19.08 57.55 111 98 _____P________ -1 -19.08 57.55 99 10 247
1872 SI MM 18:00:00 NR -19.27 57.07 98 98 _____P________ -1 -19.27 57.07 99 10 247
1872 SI MM 21:00:00 NR -19.46 56.61 115 115 _____P________ -1 -19.46 56.61 99 9 246
1872 SI MM 1872-02-09 00:00:00 NR -19.65 56.18 147 134 _____P________ -1 -19.65 56.18 99 9 245
1872 SI MM 03:00:00 NR -19.83 55.77 134 111 _____P________ -1 -19.83 55.77 99 8 244
1872 SI MM 06:00:00 NR -20.00 55.40 reunion 111 100 _____O________ -1 -20.00 55.40 99 9.90 7 244
1872 SI MM 09:00:00 NR -20.15 55.06 91 88 _____P________ -1 -20.15 55.06 99 7 244
1872 SI MM 12:00:00 NR -20.30 54.75 93 93 _____P________ -1 -20.30 54.75 99 6 242
1872 SI MM 15:00:00 NR -20.44 54.48 106 106 _____P________ -1 -20.44 54.48 99 6 240
1872 SI MM 18:00:00 NR -20.58 54.22 117 117 _____P________ -1 -20.58 54.22 99 5 239
1872 SI MM 21:00:00 NR -20.73 53.98 132 132 _____P________ -1 -20.73 53.98 99 5 236
1872 SI MM 1872-02-10 00:00:00 NR -20.87 53.75 147 147 _____P________ -1 -20.87 53.75 99 5 234
1872 SI MM 03:00:00 NR -21.03 53.53 176 176 _____P________ -1 -21.03 53.53 99 5 232
1872 SI MM 06:00:00 NR -21.20 53.30 reunion 197 197 _____O________ -1 -21.20 53.30 99 9.90 6 234
1872 SI MM 09:00:00 NR -21.36 53.03 230 230 _____P________ -1 -21.36 53.03 99 6 236
1872 SI MM 12:00:00 NR -21.53 52.77 252 252 _____P________ -1 -21.53 52.77 99 6 235
1872 SI MM 15:00:00 NR -21.71 52.50 287 287 _____P________ -1 -21.71 52.50 99 6 232
1872 SI MM 18:00:00 NR -21.91 52.25 322 322 _____P________ -1 -21.91 52.25 99 6 229
1872 SI MM 21:00:00 NR -22.12 51.99 349 349 _____P________ -1 -22.12 51.99 99 6 226
1872 SI MM 1872-02-11 00:00:00 NR -22.35 51.75 376 351 _____P________ -1 -22.35 51.75 99 7 222
1872 SI MM 03:00:00 NR -22.61 51.52 351 341 _____P________ -1 -22.61 51.52 99 7 217
1872 SI MM 06:00:00 NR -22.90 51.30 reunion 341 322 _____O________ -1 -22.90 51.30 99 9.90 7 225
1872 SI MM 09:00:00 NR -23.12 50.98 322 299 _____P________ -1 -23.12 50.98 99 7 233
1872 SI MM 12:00:00 NR -23.35 50.66 301 273 _____P________ -1 -23.35 50.66 99 8 229
1872 SI MM 15:00:00 NR -23.62 50.36 276 250 _____P________ -1 -23.62 50.36 99 8 221
1872 SI MM 18:00:00 NR -23.93 50.10 250 240 _____P________ -1 -23.93 50.10 99 8 211
1872 SI MM 21:00:00 NR -24.31 49.90 245 239 _____P________ -1 -24.31 49.90 99 9 199
1872 SI MM 1872-02-12 00:00:00 NR -24.77 49.79 249 249 _____P________ -1 -24.77 49.79 99 10 186
1872 SI MM 03:00:00 NR -25.33 49.78 267 267 _____P________ -1 -25.33 49.78 99 12 175
1872 SI MM 06:00:00 NR -26.00 49.90 reunion 302 302 _____O________ -1 -26.00 49.90 99 9.90 17 165
1872 SI MM 09:00:00 NR -26.97 50.28 389 389 _____P________ -1 -26.97 50.28 99 22 159
1872 SI MM 12:00:00 NR -28.08 50.81 504 504 _____P________ -1 -28.08 50.81 99 25 156
1872 SI MM 15:00:00 NR -29.28 51.45 646 646 _____P________ -1 -29.28 51.45 99 27 154
1872 SI MM 18:00:00 NR -30.50 52.18 790 790 _____P________ -1 -30.50 52.18 99 27 152
1872 SI MM 21:00:00 NR -31.69 52.95 941 941 _____P________ -1 -31.69 52.95 99 27 150
1872 SI MM 1872-02-13 00:00:00 NR -32.81 53.73 1077 1077 _____P________ -1 -32.81 53.73 99 25 149
1872 SI MM 03:00:00 NR -33.79 54.46 1211 1211 _____P________ -1 -33.79 54.46 99 21 148
1872 SI MM 06:00:00 NR -34.60 55.10 reunion 1315 1315 _____O________ -1 -34.60 55.10 99 9.90 17 146
1872 SI MM 09:00:00 NR -35.19 55.61 1395 1395 _____P________ -1 -35.19 55.61 99 12 144
1872 SI MM 12:00:00 NR -35.58 55.99 1453 1453 _____P________ -1 -35.58 55.99 99 8 140
1872 SI MM 15:00:00 NR -35.81 56.25 1481 1481 _____P________ -1 -35.81 56.25 99 5 132
1872 SI MM 18:00:00 NR -35.89 56.42 1501 1501 _____P________ -1 -35.89 56.42 99 2 106
1872 SI MM 21:00:00 NR -35.87 56.51 1507 1498 _____P________ -1 -35.87 56.51 99 2 37
1872 SI MM 1872-02-14 00:00:00 NR -35.76 56.54 1498 1481 _____P________ -1 -35.76 56.54 99 3 4
1872 SI MM 03:00:00 NR -35.59 56.53 1481 1464 _____P________ -1 -35.59 56.53 99 4 355
1872 SI MM 06:00:00 NR -35.40 56.50 reunion 1464 _____O________ -1 -35.40 56.50 99 9.90 4 353